createdAt,value
2017-03-20T00:00:11.700Z,0
2017-03-20T00:01:21.563Z,0
2017-03-20T00:02:30.825Z,0
2017-03-20T00:03:40.773Z,0
2017-03-20T00:04:49.648Z,0
2017-03-20T00:05:58.876Z,0
2017-03-20T00:07:07.857Z,0
2017-03-20T00:08:17.726Z,0
2017-03-20T00:09:27.049Z,0
2017-03-20T00:10:35.762Z,0
2017-03-20T00:11:45.327Z,0
2017-03-20T00:12:53.992Z,0
2017-03-20T00:14:03.860Z,0
2017-03-20T00:15:13.612Z,0
2017-03-20T00:16:22.574Z,0
2017-03-20T00:17:31.608Z,0
2017-03-20T00:18:40.575Z,0
2017-03-20T00:19:50.206Z,0
2017-03-20T00:20:59.496Z,0
2017-03-20T00:22:09.073Z,0
2017-03-20T00:23:18.154Z,0
2017-03-20T00:24:27.800Z,0
2017-03-20T00:25:36.757Z,0
2017-03-20T00:26:45.426Z,0
2017-03-20T00:27:54.393Z,0
2017-03-20T00:29:03.315Z,0
2017-03-20T00:30:12.578Z,0
2017-03-20T00:31:21.540Z,0
2017-03-20T00:32:31.105Z,0
2017-03-20T00:33:40.378Z,0
2017-03-20T00:34:49.645Z,0
2017-03-20T00:35:58.605Z,0
2017-03-20T00:37:07.873Z,0
2017-03-20T00:38:16.540Z,0
2017-03-20T00:39:25.807Z,0
2017-03-20T00:40:35.626Z,0
2017-03-20T00:41:44.581Z,0
2017-03-20T00:42:53.548Z,0
2017-03-20T00:44:02.253Z,0
2017-03-20T00:45:11.812Z,0
2017-03-20T00:46:21.070Z,0
2017-03-20T00:47:29.732Z,0
2017-03-20T00:48:38.995Z,0
2017-03-20T00:49:47.952Z,0
2017-03-20T00:50:56.912Z,0
2017-03-20T00:52:05.822Z,0
2017-03-20T00:53:15.384Z,0
2017-03-20T00:54:24.940Z,0
2017-03-20T00:55:33.907Z,0
2017-03-20T00:56:42.886Z,0
2017-03-20T00:57:51.559Z,0
2017-03-20T00:59:00.523Z,0
2017-03-20T01:00:09.178Z,0
2017-03-20T01:01:18.468Z,0
2017-03-20T01:02:28.021Z,0
2017-03-20T01:03:37.883Z,0
2017-03-20T01:04:47.452Z,0
2017-03-20T01:05:56.710Z,0
2017-03-20T01:07:05.973Z,0
2017-03-20T01:08:15.531Z,0
2017-03-20T01:09:25.650Z,0
2017-03-20T01:10:34.910Z,0
2017-03-20T01:11:43.570Z,0
2017-03-20T01:12:52.537Z,0
2017-03-20T01:14:02.402Z,0
2017-03-20T01:15:11.661Z,0
2017-03-20T01:16:20.623Z,0
2017-03-20T01:17:29.585Z,0
2017-03-20T01:18:39.155Z,0
2017-03-20T01:19:48.420Z,0
2017-03-20T01:20:58.265Z,0
2017-03-20T01:22:06.921Z,0
2017-03-20T01:23:15.579Z,0
2017-03-20T01:24:24.848Z,0
2017-03-20T01:25:34.406Z,0
2017-03-20T01:26:43.074Z,0
2017-03-20T01:27:52.638Z,0
2017-03-20T01:29:02.240Z,0
2017-03-20T01:30:11.205Z,0
2017-03-20T01:31:20.175Z,0
2017-03-20T01:32:29.393Z,0
2017-03-20T01:33:38.956Z,0
2017-03-20T01:34:47.916Z,0
2017-03-20T01:35:57.176Z,0
2017-03-20T01:37:06.432Z,0
2017-03-20T01:38:15.700Z,0
2017-03-20T01:39:24.965Z,0
2017-03-20T01:40:33.928Z,0
2017-03-20T01:41:43.190Z,0
2017-03-20T01:42:52.745Z,0
2017-03-20T01:44:02.014Z,0
2017-03-20T01:45:11.587Z,0
2017-03-20T01:46:20.847Z,0
2017-03-20T01:47:29.806Z,0
2017-03-20T01:48:39.065Z,0
2017-03-20T01:49:47.928Z,0
2017-03-20T01:50:57.186Z,0
2017-03-20T01:52:06.752Z,0
2017-03-20T01:53:16.312Z,0
2017-03-20T01:54:25.275Z,0
2017-03-20T01:55:34.551Z,0
2017-03-20T01:56:43.508Z,0
2017-03-20T01:57:52.768Z,0
2017-03-20T01:59:02.037Z,0
2017-03-20T02:00:11.003Z,0
2017-03-20T02:01:19.665Z,0
2017-03-20T02:02:28.626Z,0
2017-03-20T02:03:37.894Z,0
2017-03-20T02:04:47.450Z,0
2017-03-20T02:05:56.410Z,0
2017-03-20T02:07:05.318Z,0
2017-03-20T02:08:14.881Z,0
2017-03-20T02:09:24.146Z,0
2017-03-20T02:10:33.404Z,0
2017-03-20T02:11:42.365Z,0
2017-03-20T02:12:51.929Z,0
2017-03-20T02:14:01.186Z,0
2017-03-20T02:15:10.463Z,0
2017-03-20T02:16:19.732Z,0
2017-03-20T02:17:29.624Z,0
2017-03-20T02:18:39.180Z,0
2017-03-20T02:19:48.748Z,0
2017-03-20T02:20:58.017Z,0
2017-03-20T02:22:06.674Z,0
2017-03-20T02:23:16.229Z,0
2017-03-20T02:24:25.996Z,0
2017-03-20T02:25:35.856Z,0
2017-03-20T02:26:44.813Z,0
2017-03-20T02:27:53.777Z,0
2017-03-20T02:29:03.036Z,0
2017-03-20T02:30:12.295Z,0
2017-03-20T02:31:21.555Z,0
2017-03-20T02:32:30.215Z,0
2017-03-20T02:33:39.213Z,0
2017-03-20T02:34:47.880Z,0
2017-03-20T02:35:56.838Z,0
2017-03-20T02:37:05.836Z,0
2017-03-20T02:38:15.103Z,0
2017-03-20T02:39:24.063Z,0
2017-03-20T02:40:33.321Z,0
2017-03-20T02:41:42.227Z,0
2017-03-20T02:42:51.195Z,0
2017-03-20T02:44:01.062Z,0
2017-03-20T02:45:10.022Z,0
2017-03-20T02:46:19.582Z,0
2017-03-20T02:47:29.150Z,0
2017-03-20T02:48:38.740Z,0
2017-03-20T02:49:48.005Z,0
2017-03-20T02:50:56.976Z,0
2017-03-20T02:52:06.235Z,0
2017-03-20T02:53:15.796Z,0
2017-03-20T02:54:25.059Z,0
2017-03-20T02:55:34.311Z,0
2017-03-20T02:56:43.274Z,0
2017-03-20T02:57:52.563Z,0
2017-03-20T02:59:02.385Z,0
2017-03-20T03:00:11.943Z,0
2017-03-20T03:01:21.200Z,0
2017-03-20T03:02:30.761Z,0
2017-03-20T03:03:39.721Z,0
2017-03-20T03:04:48.688Z,0
2017-03-20T03:05:57.646Z,0
2017-03-20T03:07:06.607Z,0
2017-03-20T03:08:15.601Z,0
2017-03-20T03:09:25.461Z,0
2017-03-20T03:10:35.269Z,0
2017-03-20T03:11:43.938Z,0
2017-03-20T03:12:52.899Z,0
2017-03-20T03:14:02.163Z,0
2017-03-20T03:15:11.727Z,0
2017-03-20T03:16:20.683Z,0
2017-03-20T03:17:29.345Z,0
2017-03-20T03:18:38.305Z,0
2017-03-20T03:19:47.568Z,0
2017-03-20T03:20:56.230Z,0
2017-03-20T03:22:05.530Z,0
2017-03-20T03:23:14.797Z,0
2017-03-20T03:24:24.357Z,0
2017-03-20T03:25:33.322Z,0
2017-03-20T03:26:42.284Z,0
2017-03-20T03:27:51.204Z,0
2017-03-20T03:29:01.070Z,0
2017-03-20T03:30:10.030Z,0
2017-03-20T03:31:19.593Z,0
2017-03-20T03:32:28.852Z,0
2017-03-20T03:33:37.828Z,0
2017-03-20T03:34:47.084Z,0
2017-03-20T03:35:56.348Z,0
2017-03-20T03:37:05.607Z,0
2017-03-20T03:38:14.911Z,0
2017-03-20T03:39:24.424Z,0
2017-03-20T03:40:33.981Z,0
2017-03-20T03:41:42.665Z,0
2017-03-20T03:42:52.525Z,0
2017-03-20T03:44:01.188Z,0
2017-03-20T03:45:10.746Z,0
2017-03-20T03:46:19.702Z,0
2017-03-20T03:47:28.357Z,0
2017-03-20T03:48:37.923Z,0
2017-03-20T03:49:46.885Z,0
2017-03-20T03:50:56.153Z,0
2017-03-20T03:52:06.014Z,0
2017-03-20T03:53:14.673Z,0
2017-03-20T03:54:23.937Z,0
2017-03-20T03:55:33.205Z,0
2017-03-20T03:56:42.721Z,0
2017-03-20T03:57:52.300Z,0
2017-03-20T03:59:01.566Z,0
2017-03-20T04:00:11.124Z,0
2017-03-20T04:01:20.087Z,0
2017-03-20T04:02:29.046Z,0
2017-03-20T04:03:38.614Z,0
2017-03-20T04:04:47.883Z,0
2017-03-20T04:05:56.842Z,0
2017-03-20T04:07:06.106Z,0
2017-03-20T04:08:15.370Z,0
2017-03-20T04:09:24.038Z,0
2017-03-20T04:10:33.308Z,0
2017-03-20T04:11:42.268Z,0
2017-03-20T04:12:51.228Z,0
2017-03-20T04:14:00.739Z,0
2017-03-20T04:15:10.314Z,0
2017-03-20T04:16:19.274Z,0
2017-03-20T04:17:28.836Z,0
2017-03-20T04:18:37.501Z,0
2017-03-20T04:19:46.417Z,0
2017-03-20T04:20:55.377Z,0
2017-03-20T04:22:04.043Z,0
2017-03-20T04:23:13.307Z,0
2017-03-20T04:24:22.566Z,0
2017-03-20T04:25:31.830Z,0
2017-03-20T04:26:40.789Z,0
2017-03-20T04:27:50.051Z,0
2017-03-20T04:28:59.318Z,0
2017-03-20T04:30:08.284Z,0
2017-03-20T04:31:17.252Z,0
2017-03-20T04:32:25.912Z,0
2017-03-20T04:33:35.474Z,0
2017-03-20T04:34:44.739Z,0
2017-03-20T04:35:53.706Z,0
2017-03-20T04:37:02.925Z,0
2017-03-20T04:38:12.789Z,0
2017-03-20T04:39:22.061Z,0
2017-03-20T04:40:30.723Z,0
2017-03-20T04:41:39.377Z,0
2017-03-20T04:42:48.341Z,0
2017-03-20T04:43:57.904Z,0
2017-03-20T04:45:06.873Z,0
2017-03-20T04:46:16.167Z,0
2017-03-20T04:47:25.425Z,0
2017-03-20T04:48:35.236Z,0
2017-03-20T04:49:44.192Z,0
2017-03-20T04:50:53.149Z,0
2017-03-20T04:52:02.104Z,0
2017-03-20T04:53:11.074Z,0
2017-03-20T04:54:20.649Z,0
2017-03-20T04:55:29.319Z,0
2017-03-20T04:56:38.577Z,0
2017-03-20T04:57:47.843Z,0
2017-03-20T04:58:57.100Z,0
2017-03-20T05:00:06.606Z,0
2017-03-20T05:01:15.264Z,0
2017-03-20T05:02:24.224Z,0
2017-03-20T05:03:33.196Z,0
2017-03-20T05:04:42.455Z,0
2017-03-20T05:05:51.412Z,0
2017-03-20T05:07:00.378Z,0
2017-03-20T05:08:09.348Z,0
2017-03-20T05:09:18.604Z,0
2017-03-20T05:10:27.866Z,4
2017-03-20T05:11:37.077Z,4
2017-03-20T05:12:46.344Z,4
2017-03-20T05:13:55.612Z,4
2017-03-20T05:15:04.575Z,4
2017-03-20T05:16:13.235Z,8
2017-03-20T05:17:22.197Z,8
2017-03-20T05:18:31.155Z,8
2017-03-20T05:19:40.426Z,12
2017-03-20T05:20:49.390Z,12
2017-03-20T05:21:58.345Z,12
2017-03-20T05:23:07.262Z,20
2017-03-20T05:24:16.231Z,24
2017-03-20T05:25:24.894Z,24
2017-03-20T05:26:33.560Z,32
2017-03-20T05:27:42.827Z,36
2017-03-20T05:28:52.091Z,40
2017-03-20T05:30:01.355Z,48
2017-03-20T05:31:10.315Z,56
2017-03-20T05:32:18.978Z,68
2017-03-20T05:33:28.547Z,76
2017-03-20T05:34:38.058Z,84
2017-03-20T05:35:46.716Z,104
2017-03-20T05:36:55.377Z,124
2017-03-20T05:38:04.341Z,132
2017-03-20T05:39:13.303Z,136
2017-03-20T05:40:22.561Z,136
2017-03-20T05:41:32.118Z,144
2017-03-20T05:42:41.381Z,140
2017-03-20T05:43:50.342Z,152
2017-03-20T05:44:59.903Z,164
2017-03-20T05:46:09.415Z,172
2017-03-20T05:47:18.073Z,172
2017-03-20T05:48:27.341Z,192
2017-03-20T05:49:36.004Z,216
2017-03-20T05:50:45.259Z,256
2017-03-20T05:51:54.522Z,292
2017-03-20T05:53:04.383Z,328
2017-03-20T05:54:14.242Z,344
2017-03-20T05:55:23.204Z,380
2017-03-20T05:56:32.176Z,412
2017-03-20T05:57:41.092Z,456
2017-03-20T05:58:50.657Z,444
2017-03-20T06:00:00.524Z,440
2017-03-20T06:01:09.480Z,440
2017-03-20T06:02:18.437Z,400
2017-03-20T06:03:27.401Z,428
2017-03-20T06:04:36.959Z,528
2017-03-20T06:05:46.240Z,600
2017-03-20T06:06:55.199Z,544
2017-03-20T06:08:04.493Z,488
2017-03-20T06:09:14.066Z,620
2017-03-20T06:10:23.620Z,652
2017-03-20T06:11:32.573Z,676
2017-03-20T06:12:41.234Z,776
2017-03-20T06:13:51.097Z,776
2017-03-20T06:15:00.009Z,720
2017-03-20T06:16:08.671Z,784
2017-03-20T06:17:17.929Z,832
2017-03-20T06:18:27.197Z,760
2017-03-20T06:19:36.160Z,828
2017-03-20T06:20:44.822Z,904
2017-03-20T06:21:53.480Z,976
2017-03-20T06:23:02.143Z,992
2017-03-20T06:24:11.413Z,976
2017-03-20T06:25:20.372Z,976
2017-03-20T06:26:29.879Z,1076
2017-03-20T06:27:39.464Z,1116
2017-03-20T06:28:48.479Z,1020
2017-03-20T06:29:57.439Z,1088
2017-03-20T06:31:06.707Z,1244
2017-03-20T06:32:15.666Z,1276
2017-03-20T06:33:25.236Z,1392
2017-03-20T06:34:34.207Z,1500
2017-03-20T06:35:43.161Z,1544
2017-03-20T06:36:51.825Z,1764
2017-03-20T06:38:01.035Z,1840
2017-03-20T06:39:10.302Z,1960
2017-03-20T06:40:19.567Z,2248
2017-03-20T06:41:28.230Z,2344
2017-03-20T06:42:37.195Z,2292
2017-03-20T06:43:46.475Z,2440
2017-03-20T06:44:56.352Z,2300
2017-03-20T06:46:05.311Z,2480
2017-03-20T06:47:14.273Z,2648
2017-03-20T06:48:23.534Z,3088
2017-03-20T06:49:33.347Z,3944
2017-03-20T06:50:42.607Z,4268
2017-03-20T06:51:51.271Z,4564
2017-03-20T06:53:00.524Z,4676
2017-03-20T06:54:09.783Z,4808
2017-03-20T06:55:19.049Z,4908
2017-03-20T06:56:28.004Z,4552
2017-03-20T06:57:36.963Z,4444
2017-03-20T06:58:45.627Z,3828
2017-03-20T06:59:54.893Z,3640
2017-03-20T07:01:04.406Z,3292
2017-03-20T07:02:13.664Z,3648
2017-03-20T07:03:22.633Z,3048
2017-03-20T07:04:31.896Z,2952
2017-03-20T07:05:40.852Z,3404
2017-03-20T07:06:50.410Z,3860
2017-03-20T07:07:59.964Z,3780
2017-03-20T07:09:09.532Z,3640
2017-03-20T07:10:18.796Z,3644
2017-03-20T07:11:27.454Z,3868
2017-03-20T07:12:37.018Z,4376
2017-03-20T07:13:46.885Z,5448
2017-03-20T07:14:56.752Z,6328
2017-03-20T07:16:05.760Z,6384
2017-03-20T07:17:14.721Z,6096
2017-03-20T07:18:23.932Z,5396
2017-03-20T07:19:33.799Z,4988
2017-03-20T07:20:43.060Z,5236
2017-03-20T07:21:52.316Z,5132
2017-03-20T07:23:01.575Z,3944
2017-03-20T07:24:10.836Z,3632
2017-03-20T07:25:21.002Z,3440
2017-03-20T07:26:29.661Z,3532
2017-03-20T07:27:38.619Z,3804
2017-03-20T07:28:47.277Z,3836
2017-03-20T07:29:56.788Z,4076
2017-03-20T07:31:05.742Z,3924
2017-03-20T07:32:15.005Z,4220
2017-03-20T07:33:23.972Z,4384
2017-03-20T07:34:33.236Z,4940
2017-03-20T07:35:42.198Z,5176
2017-03-20T07:36:51.173Z,5076
2017-03-20T07:38:00.428Z,5408
2017-03-20T07:39:09.689Z,5764
2017-03-20T07:40:18.356Z,6380
2017-03-20T07:41:27.271Z,6592
2017-03-20T07:42:36.535Z,6248
2017-03-20T07:43:46.098Z,5668
2017-03-20T07:44:55.367Z,5448
2017-03-20T07:46:04.331Z,4932
2017-03-20T07:47:13.589Z,4864
2017-03-20T07:48:22.558Z,5384
2017-03-20T07:49:31.523Z,5484
2017-03-20T07:50:40.482Z,5208
2017-03-20T07:51:49.738Z,4884
2017-03-20T07:52:59.299Z,4740
2017-03-20T07:54:08.564Z,5244
2017-03-20T07:55:17.529Z,5416
2017-03-20T07:56:26.494Z,5440
2017-03-20T07:57:35.753Z,5708
2017-03-20T07:58:45.266Z,5312
2017-03-20T07:59:54.833Z,5224
2017-03-20T08:01:04.110Z,5412
2017-03-20T08:02:12.771Z,5112
2017-03-20T08:03:21.739Z,4536
2017-03-20T08:04:30.713Z,4260
2017-03-20T08:05:39.974Z,4096
2017-03-20T08:06:48.968Z,4012
2017-03-20T08:07:57.933Z,4632
2017-03-20T08:09:07.194Z,5072
2017-03-20T08:10:16.408Z,4748
2017-03-20T08:11:25.070Z,4992
2017-03-20T08:12:33.738Z,4988
2017-03-20T08:13:43.012Z,4864
2017-03-20T08:14:52.880Z,5072
2017-03-20T08:16:02.145Z,5400
2017-03-20T08:17:11.103Z,5664
2017-03-20T08:18:20.666Z,6448
2017-03-20T08:19:29.631Z,7092
2017-03-20T08:20:38.896Z,7200
2017-03-20T08:21:48.708Z,6948
2017-03-20T08:22:57.976Z,6200
2017-03-20T08:24:07.234Z,5732
2017-03-20T08:25:17.096Z,5424
2017-03-20T08:26:25.762Z,5076
2017-03-20T08:27:34.728Z,5360
2017-03-20T08:28:44.008Z,6036
2017-03-20T08:29:53.273Z,6404
2017-03-20T08:31:02.538Z,6344
2017-03-20T08:32:11.209Z,6252
2017-03-20T08:33:20.119Z,6552
2017-03-20T08:34:29.387Z,6680
2017-03-20T08:35:38.346Z,6892
2017-03-20T08:36:47.905Z,7480
2017-03-20T08:37:56.574Z,7952
2017-03-20T08:39:05.237Z,7568
2017-03-20T08:40:13.897Z,7176
2017-03-20T08:41:23.156Z,6676
2017-03-20T08:42:32.416Z,6236
2017-03-20T08:43:41.685Z,5792
2017-03-20T08:44:51.521Z,6356
2017-03-20T08:46:00.486Z,5884
2017-03-20T08:47:09.447Z,6468
2017-03-20T08:48:18.750Z,6212
2017-03-20T08:49:28.014Z,6284
2017-03-20T08:50:37.270Z,6220
2017-03-20T08:51:46.225Z,6200
2017-03-20T08:52:55.487Z,6008
2017-03-20T08:54:04.753Z,7392
2017-03-20T08:55:14.316Z,6640
2017-03-20T08:56:23.828Z,7544
2017-03-20T08:57:33.089Z,8160
2017-03-20T08:58:42.662Z,8276
2017-03-20T08:59:52.227Z,8852
2017-03-20T09:01:02.388Z,8904
2017-03-20T09:02:11.331Z,8432
2017-03-20T09:03:20.901Z,9220
2017-03-20T09:04:30.475Z,9664
2017-03-20T09:05:40.037Z,8960
2017-03-20T09:06:48.701Z,10868
2017-03-20T09:07:57.662Z,11124
2017-03-20T09:09:07.222Z,10688
2017-03-20T09:10:16.185Z,10304
2017-03-20T09:11:25.746Z,8212
2017-03-20T09:12:34.412Z,8020
2017-03-20T09:13:43.675Z,8140
2017-03-20T09:14:52.937Z,9780
2017-03-20T09:16:01.595Z,9012
2017-03-20T09:17:10.903Z,10404
2017-03-20T09:18:19.869Z,12064
2017-03-20T09:19:29.081Z,13304
2017-03-20T09:20:38.043Z,12888
2017-03-20T09:21:47.601Z,14824
2017-03-20T09:22:56.568Z,11584
2017-03-20T09:24:05.528Z,11872
2017-03-20T09:25:14.483Z,12580
2017-03-20T09:26:23.143Z,13880
2017-03-20T09:27:31.803Z,13132
2017-03-20T09:28:41.068Z,11632
2017-03-20T09:29:50.340Z,10208
2017-03-20T09:30:59.547Z,13088
2017-03-20T09:32:08.839Z,10500
2017-03-20T09:33:17.811Z,10432
2017-03-20T09:34:26.766Z,10104
2017-03-20T09:35:35.758Z,9736
2017-03-20T09:36:45.316Z,9496
2017-03-20T09:37:54.882Z,11192
2017-03-20T09:39:04.449Z,12024
2017-03-20T09:40:13.711Z,12536
2017-03-20T09:41:22.367Z,11648
2017-03-20T09:42:31.310Z,12732
2017-03-20T09:43:40.278Z,12968
2017-03-20T09:44:49.534Z,13732
2017-03-20T09:45:58.806Z,13760
2017-03-20T09:47:08.368Z,10916
2017-03-20T09:48:18.534Z,10148
2017-03-20T09:49:27.496Z,12284
2017-03-20T09:50:36.161Z,14484
2017-03-20T09:51:45.421Z,14448
2017-03-20T09:52:54.677Z,18304
2017-03-20T09:54:03.626Z,16688
2017-03-20T09:55:12.627Z,15328
2017-03-20T09:56:21.591Z,17484
2017-03-20T09:57:30.252Z,17248
2017-03-20T09:58:39.534Z,14468
2017-03-20T09:59:49.650Z,17212
2017-03-20T10:00:58.315Z,14920
2017-03-20T10:02:06.975Z,15264
2017-03-20T10:03:16.240Z,15212
2017-03-20T10:04:25.516Z,14844
2017-03-20T10:05:35.091Z,13312
2017-03-20T10:06:44.048Z,17424
2017-03-20T10:07:53.614Z,20960
2017-03-20T10:09:03.486Z,18048
2017-03-20T10:10:13.305Z,16440
2017-03-20T10:11:21.959Z,16580
2017-03-20T10:12:30.921Z,14492
2017-03-20T10:13:40.486Z,16540
2017-03-20T10:14:49.451Z,13436
2017-03-20T10:15:58.677Z,14352
2017-03-20T10:17:07.649Z,13356
2017-03-20T10:18:16.918Z,12868
2017-03-20T10:19:26.489Z,13852
2017-03-20T10:20:35.756Z,14436
2017-03-20T10:21:44.728Z,14260
2017-03-20T10:22:53.999Z,14856
2017-03-20T10:24:03.270Z,13844
2017-03-20T10:25:12.235Z,12424
2017-03-20T10:26:21.796Z,13836
2017-03-20T10:27:30.711Z,15028
2017-03-20T10:28:39.681Z,21664
2017-03-20T10:29:48.638Z,20928
2017-03-20T10:30:57.300Z,20608
2017-03-20T10:32:06.268Z,25504
2017-03-20T10:33:15.533Z,22112
2017-03-20T10:34:25.411Z,15720
2017-03-20T10:35:34.973Z,16716
2017-03-20T10:36:43.936Z,17920
2017-03-20T10:37:53.195Z,25920
2017-03-20T10:39:02.417Z,24352
2017-03-20T10:40:11.994Z,16956
2017-03-20T10:41:20.955Z,25280
2017-03-20T10:42:29.621Z,30048
2017-03-20T10:43:38.890Z,26336
2017-03-20T10:44:48.119Z,31968
2017-03-20T10:45:57.432Z,32032
2017-03-20T10:47:06.692Z,37056
2017-03-20T10:48:15.997Z,37088
2017-03-20T10:49:25.276Z,35904
2017-03-20T10:50:34.794Z,35264
2017-03-20T10:51:43.759Z,28288
2017-03-20T10:52:53.328Z,31232
2017-03-20T10:54:02.909Z,33472
2017-03-20T10:55:12.181Z,31648
2017-03-20T10:56:20.845Z,27136
2017-03-20T10:57:30.411Z,27648
2017-03-20T10:58:39.080Z,30688
2017-03-20T10:59:47.744Z,25248
2017-03-20T11:00:56.703Z,25024
2017-03-20T11:02:05.923Z,21696
2017-03-20T11:03:14.892Z,22880
2017-03-20T11:04:23.868Z,22208
2017-03-20T11:05:33.135Z,22880
2017-03-20T11:06:42.114Z,22400
2017-03-20T11:07:51.086Z,20960
2017-03-20T11:09:00.365Z,29312
2017-03-20T11:10:09.342Z,43936
2017-03-20T11:11:18.008Z,41376
2017-03-20T11:12:26.974Z,32032
2017-03-20T11:13:35.651Z,30848
2017-03-20T11:14:45.515Z,29152
2017-03-20T11:15:54.480Z,29056
2017-03-20T11:17:03.143Z,26464
2017-03-20T11:18:12.717Z,29792
2017-03-20T11:19:22.839Z,27360
2017-03-20T11:20:32.133Z,22496
2017-03-20T11:21:40.799Z,18688
2017-03-20T11:22:49.470Z,20384
2017-03-20T11:23:58.740Z,18400
2017-03-20T11:25:08.311Z,18240
2017-03-20T11:26:17.273Z,16108
2017-03-20T11:27:26.545Z,15656
2017-03-20T11:28:35.514Z,17888
2017-03-20T11:29:44.781Z,16392
2017-03-20T11:30:54.294Z,17856
2017-03-20T11:32:03.855Z,18784
2017-03-20T11:33:12.517Z,19552
2017-03-20T11:34:21.792Z,18016
2017-03-20T11:35:30.759Z,16892
2017-03-20T11:36:39.731Z,16868
2017-03-20T11:37:48.993Z,19808
2017-03-20T11:38:57.651Z,17984
2017-03-20T11:40:06.332Z,18688
2017-03-20T11:41:14.994Z,15464
2017-03-20T11:42:23.666Z,15492
2017-03-20T11:43:32.631Z,15508
2017-03-20T11:44:41.625Z,15996
2017-03-20T11:45:50.300Z,18080
2017-03-20T11:46:59.274Z,19968
2017-03-20T11:48:08.841Z,19456
2017-03-20T11:49:17.506Z,19328
2017-03-20T11:50:27.073Z,21344
2017-03-20T11:51:35.774Z,19872
2017-03-20T11:52:45.355Z,20128
2017-03-20T11:53:54.880Z,20672
2017-03-20T11:55:04.143Z,20672
2017-03-20T11:56:12.806Z,19072
2017-03-20T11:57:22.072Z,17888
2017-03-20T11:58:31.337Z,21248
2017-03-20T11:59:40.602Z,23104
2017-03-20T12:00:49.562Z,19904
2017-03-20T12:01:58.528Z,15716
2017-03-20T12:03:07.797Z,14580
2017-03-20T12:04:17.666Z,13384
2017-03-20T12:05:27.180Z,13488
2017-03-20T12:06:36.440Z,15392
2017-03-20T12:07:45.705Z,15316
2017-03-20T12:08:55.272Z,16596
2017-03-20T12:10:04.237Z,18720
2017-03-20T12:11:12.910Z,20288
2017-03-20T12:12:22.180Z,21824
2017-03-20T12:13:30.857Z,20352
2017-03-20T12:14:40.437Z,17984
2017-03-20T12:15:49.700Z,16348
2017-03-20T12:16:58.667Z,17348
2017-03-20T12:18:07.937Z,17728
2017-03-20T12:19:17.799Z,16548
2017-03-20T12:20:27.062Z,14532
2017-03-20T12:21:36.628Z,15128
2017-03-20T12:22:45.292Z,14568
2017-03-20T12:23:54.564Z,12624
2017-03-20T12:25:04.129Z,11492
2017-03-20T12:26:13.094Z,11748
2017-03-20T12:27:22.056Z,11712
2017-03-20T12:28:31.277Z,11852
2017-03-20T12:29:40.554Z,11604
2017-03-20T12:30:49.224Z,11672
2017-03-20T12:31:58.184Z,11288
2017-03-20T12:33:07.148Z,11728
2017-03-20T12:34:16.118Z,12048
2017-03-20T12:35:24.796Z,12044
2017-03-20T12:36:33.457Z,11192
2017-03-20T12:37:42.725Z,10748
2017-03-20T12:38:52.037Z,10984
2017-03-20T12:40:01.252Z,11560
2017-03-20T12:41:09.919Z,11300
2017-03-20T12:42:18.878Z,11120
2017-03-20T12:43:27.558Z,11084
2017-03-20T12:44:36.519Z,10668
2017-03-20T12:45:45.481Z,9928
2017-03-20T12:46:54.145Z,10288
2017-03-20T12:48:03.417Z,10464
2017-03-20T12:49:12.386Z,9712
2017-03-20T12:50:21.651Z,9788
2017-03-20T12:51:30.923Z,8804
2017-03-20T12:52:39.883Z,8292
2017-03-20T12:53:48.555Z,8440
2017-03-20T12:54:57.521Z,8928
2017-03-20T12:56:07.088Z,9524
2017-03-20T12:57:16.651Z,10356
2017-03-20T12:58:25.918Z,12092
2017-03-20T12:59:34.594Z,11432
2017-03-20T13:00:43.554Z,11552
2017-03-20T13:01:52.223Z,11156
2017-03-20T13:03:01.439Z,10920
2017-03-20T13:04:10.698Z,10784
2017-03-20T13:05:20.258Z,10036
2017-03-20T13:06:29.515Z,9448
2017-03-20T13:07:38.781Z,9820
2017-03-20T13:08:47.989Z,8620
2017-03-20T13:09:57.256Z,7964
2017-03-20T13:11:06.528Z,8392
2017-03-20T13:12:15.801Z,8364
2017-03-20T13:13:25.066Z,8056
2017-03-20T13:14:34.626Z,8556
2017-03-20T13:15:43.892Z,8324
2017-03-20T13:16:52.561Z,7612
2017-03-20T13:18:01.527Z,7944
2017-03-20T13:19:10.505Z,7836
2017-03-20T13:20:19.718Z,8548
2017-03-20T13:21:28.987Z,9468
2017-03-20T13:22:37.947Z,10980
2017-03-20T13:23:46.910Z,13356
2017-03-20T13:24:55.878Z,13792
2017-03-20T13:26:05.152Z,12500
2017-03-20T13:27:14.114Z,12424
2017-03-20T13:28:23.383Z,12088
2017-03-20T13:29:32.650Z,11880
2017-03-20T13:30:42.228Z,12912
2017-03-20T13:31:51.444Z,12324
2017-03-20T13:33:00.710Z,11168
2017-03-20T13:34:09.695Z,11356
2017-03-20T13:35:18.355Z,10668
2017-03-20T13:36:27.313Z,11584
2017-03-20T13:37:35.981Z,11036
2017-03-20T13:38:45.559Z,9500
2017-03-20T13:39:54.220Z,8568
2017-03-20T13:41:03.186Z,10120
2017-03-20T13:42:12.147Z,14212
2017-03-20T13:43:21.362Z,15820
2017-03-20T13:44:30.927Z,15540
2017-03-20T13:45:39.884Z,15912
2017-03-20T13:46:48.857Z,17272
2017-03-20T13:47:57.522Z,17220
2017-03-20T13:49:06.482Z,19456
2017-03-20T13:50:15.743Z,19744
2017-03-20T13:51:24.406Z,18688
2017-03-20T13:52:33.364Z,14556
2017-03-20T13:53:42.926Z,11304
2017-03-20T13:54:52.438Z,9700
2017-03-20T13:56:02.305Z,9196
2017-03-20T13:57:11.564Z,10548
2017-03-20T13:58:20.823Z,11664
2017-03-20T13:59:30.087Z,12180
2017-03-20T14:00:39.301Z,11088
2017-03-20T14:01:47.962Z,11352
2017-03-20T14:02:56.634Z,11312
2017-03-20T14:04:05.909Z,10388
2017-03-20T14:05:14.881Z,10228
2017-03-20T14:06:23.543Z,9440
2017-03-20T14:07:32.802Z,9256
2017-03-20T14:08:42.368Z,9100
2017-03-20T14:09:52.231Z,8044
2017-03-20T14:11:01.199Z,7484
2017-03-20T14:12:10.465Z,7864
2017-03-20T14:13:19.137Z,8524
2017-03-20T14:14:28.104Z,9264
2017-03-20T14:15:37.374Z,10240
2017-03-20T14:16:46.331Z,9944
2017-03-20T14:17:55.598Z,9508
2017-03-20T14:19:05.170Z,9068
2017-03-20T14:20:14.127Z,8896
2017-03-20T14:21:22.793Z,8436
2017-03-20T14:22:31.447Z,7544
2017-03-20T14:23:41.219Z,7772
2017-03-20T14:24:50.184Z,9736
2017-03-20T14:25:59.150Z,10124
2017-03-20T14:27:08.117Z,10484
2017-03-20T14:28:16.807Z,11540
2017-03-20T14:29:26.071Z,9632
2017-03-20T14:30:35.029Z,7592
2017-03-20T14:31:43.688Z,7052
2017-03-20T14:32:52.654Z,6176
2017-03-20T14:34:01.627Z,6252
2017-03-20T14:35:10.889Z,6456
2017-03-20T14:36:20.181Z,6460
2017-03-20T14:37:29.141Z,6380
2017-03-20T14:38:38.408Z,6220
2017-03-20T14:39:47.378Z,5668
2017-03-20T14:40:56.048Z,4940
2017-03-20T14:42:05.018Z,4336
2017-03-20T14:43:13.982Z,3988
2017-03-20T14:44:22.943Z,4396
2017-03-20T14:45:31.907Z,4728
2017-03-20T14:46:41.114Z,4960
2017-03-20T14:47:50.384Z,5736
2017-03-20T14:48:59.650Z,6788
2017-03-20T14:50:08.611Z,7208
2017-03-20T14:51:17.576Z,7788
2017-03-20T14:52:26.241Z,7352
2017-03-20T14:53:34.911Z,7960
2017-03-20T14:54:43.574Z,8372
2017-03-20T14:55:52.532Z,9100
2017-03-20T14:57:01.491Z,9408
2017-03-20T14:58:10.408Z,9588
2017-03-20T14:59:19.368Z,8596
2017-03-20T15:00:28.028Z,8152
2017-03-20T15:01:36.989Z,7160
2017-03-20T15:02:46.257Z,6032
2017-03-20T15:04:10.431Z,6976
2017-03-20T15:05:20.304Z,7912
2017-03-20T15:06:29.567Z,7760
2017-03-20T15:07:38.535Z,8812
2017-03-20T15:08:47.808Z,8344
2017-03-20T15:09:57.081Z,9088
2017-03-20T15:11:06.042Z,9664
2017-03-20T15:12:15.000Z,8676
2017-03-20T15:13:23.968Z,8972
2017-03-20T15:14:33.839Z,8468
2017-03-20T15:15:42.803Z,7956
2017-03-20T15:16:51.465Z,7616
2017-03-20T15:18:00.730Z,8056
2017-03-20T15:19:09.997Z,8608
2017-03-20T15:20:18.659Z,9540
2017-03-20T15:21:27.331Z,10276
2017-03-20T15:22:36.300Z,10688
2017-03-20T15:23:44.958Z,11512
2017-03-20T15:24:53.621Z,12652
2017-03-20T15:26:02.532Z,12576
2017-03-20T15:27:11.204Z,9556
2017-03-20T15:28:20.475Z,6840
2017-03-20T15:29:30.343Z,7444
2017-03-20T15:30:39.609Z,7008
2017-03-20T15:31:48.874Z,6068
2017-03-20T15:32:57.836Z,5760
2017-03-20T15:34:07.103Z,6648
2017-03-20T15:35:16.665Z,7468
2017-03-20T15:36:25.332Z,5596
2017-03-20T15:37:34.253Z,5096
2017-03-20T15:38:43.229Z,4764
2017-03-20T15:39:52.195Z,4728
2017-03-20T15:41:00.858Z,4056
2017-03-20T15:42:09.829Z,4672
2017-03-20T15:43:18.796Z,4380
2017-03-20T15:44:28.054Z,4296
2017-03-20T15:45:36.714Z,4232